sensor_id;sensor_type;location;lat;lon;timestamp;pressure;altitude;pressure_sealevel;temperature;humidity
7075;BME280;3578;51.568;6.932;2023-02-21T00:02:20;49808.78;;;-144.14;100.00
7075;BME280;3578;51.568;6.932;2023-02-21T00:05:06;49804.78;;;-144.14;100.00
7075;BME280;3578;51.568;6.932;2023-02-21T00:07:51;49816.78;;;-144.14;100.00
7075;BME280;3578;51.568;6.932;2023-02-21T00:10:35;49808.78;;;-144.14;100.00
7075;BME280;3578;51.568;6.932;2023-02-21T00:13:20;49832.81;;;-144.14;100.00
7075;BME280;3578;51.568;6.932;2023-02-21T00:16:05;49790.78;;;-144.14;100.00
7075;BME280;3578;51.568;6.932;2023-02-21T00:18:49;49830.81;;;-144.14;100.00
7075;BME280;3578;51.568;6.932;2023-02-21T00:21:35;49722.69;;;-144.14;100.00
7075;BME280;3578;51.568;6.932;2023-02-21T00:24:20;49754.72;;;-144.14;100.00
7075;BME280;3578;51.568;6.932;2023-02-21T00:27:05;49768.75;;;-144.14;100.00
7075;BME280;3578;51.568;6.932;2023-02-21T00:29:50;49724.69;;;-144.14;100.00
7075;BME280;3578;51.568;6.932;2023-02-21T00:32:35;49788.78;;;-144.14;100.00
7075;BME280;3578;51.568;6.932;2023-02-21T00:35:19;49764.75;;;-144.14;100.00
7075;BME280;3578;51.568;6.932;2023-02-21T00:38:05;49768.75;;;-144.14;100.00
7075;BME280;3578;51.568;6.932;2023-02-21T00:40:50;49770.75;;;-144.14;100.00
7075;BME280;3578;51.568;6.932;2023-02-21T00:43:35;49682.66;;;-144.14;100.00
7075;BME280;3578;51.568;6.932;2023-02-21T00:46:20;49726.72;;;-144.14;100.00
7075;BME280;3578;51.568;6.932;2023-02-21T00:49:05;49706.69;;;-144.14;100.00
7075;BME280;3578;51.568;6.932;2023-02-21T00:51:50;49764.75;;;-144.14;100.00
7075;BME280;3578;51.568;6.932;2023-02-21T00:54:36;49822.81;;;-144.14;100.00
7075;BME280;3578;51.568;6.932;2023-02-21T00:57:21;49818.81;;;-144.14;100.00
7075;BME280;3578;51.568;6.932;2023-02-21T01:00:13;49778.75;;;-144.14;100.00
7075;BME280;3578;51.568;6.932;2023-02-21T01:02:58;49794.78;;;-144.14;100.00
7075;BME280;3578;51.568;6.932;2023-02-21T01:05:43;49796.78;;;-144.14;100.00
7075;BME280;3578;51.568;6.932;2023-02-21T01:08:28;49760.75;;;-144.14;100.00
7075;BME280;3578;51.568;6.932;2023-02-21T01:11:16;49754.72;;;-144.14;100.00
7075;BME280;3578;51.568;6.932;2023-02-21T01:14:02;49744.72;;;-144.14;100.00
7075;BME280;3578;51.568;6.932;2023-02-21T01:16:47;49722.69;;;-144.14;100.00
7075;BME280;3578;51.568;6.932;2023-02-21T01:19:32;49704.69;;;-144.14;100.00
7075;BME280;3578;51.568;6.932;2023-02-21T01:22:17;49668.66;;;-144.14;100.00
7075;BME280;3578;51.568;6.932;2023-02-21T01:25:02;49688.66;;;-144.14;100.00
7075;BME280;3578;51.568;6.932;2023-02-21T01:27:48;49636.63;;;-144.14;100.00
7075;BME280;3578;51.568;6.932;2023-02-21T01:30:33;49592.56;;;-144.14;100.00
7075;BME280;3578;51.568;6.932;2023-02-21T01:33:17;49604.59;;;-144.14;100.00
7075;BME280;3578;51.568;6.932;2023-02-21T01:36:04;49600.59;;;-144.14;100.00
7075;BME280;3578;51.568;6.932;2023-02-21T01:38:49;49604.59;;;-144.14;100.00
7075;BME280;3578;51.568;6.932;2023-02-21T01:41:34;49596.56;;;-144.14;100.00
7075;BME280;3578;51.568;6.932;2023-02-21T01:44:33;49556.53;;;-144.14;100.00
7075;BME280;3578;51.568;6.932;2023-02-21T01:47:19;49566.56;;;-144.14;100.00
7075;BME280;3578;51.568;6.932;2023-02-21T01:50:10;49578.56;;;-144.14;100.00
7075;BME280;3578;51.568;6.932;2023-02-21T01:52:55;49564.53;;;-144.14;100.00
7075;BME280;3578;51.568;6.932;2023-02-21T01:55:39;49564.53;;;-144.14;100.00
7075;BME280;3578;51.568;6.932;2023-02-21T01:58:27;49562.53;;;-144.14;100.00
7075;BME280;3578;51.568;6.932;2023-02-21T02:01:20;49574.56;;;-144.14;100.00
7075;BME280;3578;51.568;6.932;2023-02-21T02:04:07;49612.59;;;-144.14;100.00
7075;BME280;3578;51.568;6.932;2023-02-21T02:06:52;49616.59;;;-144.14;100.00
7075;BME280;3578;51.568;6.932;2023-02-21T02:09:36;49596.56;;;-144.14;100.00
7075;BME280;3578;51.568;6.932;2023-02-21T02:12:59;49580.56;;;-144.14;100.00
7075;BME280;3578;51.568;6.932;2023-02-21T02:15:41;49546.53;;;-144.14;100.00
7075;BME280;3578;51.568;6.932;2023-02-21T02:21:54;49566.56;;;-144.14;100.00
7075;BME280;3578;51.568;6.932;2023-02-21T02:27:43;49468.47;;;-144.14;100.00
7075;BME280;3578;51.568;6.932;2023-02-21T02:31:04;49472.47;;;-144.14;100.00
7075;BME280;3578;51.568;6.932;2023-02-21T02:37:00;49442.44;;;-144.14;100.00
7075;BME280;3578;51.568;6.932;2023-02-21T02:39:39;49390.38;;;-144.14;100.00
7075;BME280;3578;51.568;6.932;2023-02-21T02:42:15;49408.41;;;-144.14;100.00
7075;BME280;3578;51.568;6.932;2023-02-21T02:44:52;49360.34;;;-144.14;100.00
7075;BME280;3578;51.568;6.932;2023-02-21T02:47:27;49408.41;;;-144.14;100.00
7075;BME280;3578;51.568;6.932;2023-02-21T02:49:57;49396.38;;;-144.14;100.00
7075;BME280;3578;51.568;6.932;2023-02-21T02:52:27;49436.44;;;-144.14;100.00
7075;BME280;3578;51.568;6.932;2023-02-21T02:54:58;49434.44;;;-144.14;100.00
7075;BME280;3578;51.568;6.932;2023-02-21T02:57:28;49448.44;;;-144.14;100.00
7075;BME280;3578;51.568;6.932;2023-02-21T03:00:03;49444.44;;;-144.14;100.00
7075;BME280;3578;51.568;6.932;2023-02-21T03:02:48;49362.38;;;-144.14;100.00
7075;BME280;3578;51.568;6.932;2023-02-21T03:05:37;49380.38;;;-144.14;100.00
7075;BME280;3578;51.568;6.932;2023-02-21T03:08:16;49392.38;;;-144.14;100.00
7075;BME280;3578;51.568;6.932;2023-02-21T03:10:53;49434.44;;;-144.14;100.00
7075;BME280;3578;51.568;6.932;2023-02-21T03:13:33;49404.41;;;-144.14;100.00
7075;BME280;3578;51.568;6.932;2023-02-21T03:16:08;49340.34;;;-144.14;100.00
7075;BME280;3578;51.568;6.932;2023-02-21T03:18:43;49344.34;;;-144.14;100.00
7075;BME280;3578;51.568;6.932;2023-02-21T03:21:17;49316.31;;;-144.14;100.00
7075;BME280;3578;51.568;6.932;2023-02-21T03:23:51;49306.31;;;-144.14;100.00
7075;BME280;3578;51.568;6.932;2023-02-21T03:26:20;49278.28;;;-144.14;100.00
7075;BME280;3578;51.568;6.932;2023-02-21T03:28:47;49308.31;;;-144.14;100.00
7075;BME280;3578;51.568;6.932;2023-02-21T03:31:20;49338.34;;;-144.14;100.00
7075;BME280;3578;51.568;6.932;2023-02-21T03:33:49;49380.38;;;-144.14;100.00
7075;BME280;3578;51.568;6.932;2023-02-21T03:36:16;49296.31;;;-144.14;100.00
7075;BME280;3578;51.568;6.932;2023-02-21T03:38:43;49366.38;;;-144.14;100.00
7075;BME280;3578;51.568;6.932;2023-02-21T03:41:12;49352.34;;;-144.14;100.00
7075;BME280;3578;51.568;6.932;2023-02-21T03:43:40;49270.28;;;-144.14;100.00
7075;BME280;3578;51.568;6.932;2023-02-21T03:46:07;49258.28;;;-144.14;100.00
7075;BME280;3578;51.568;6.932;2023-02-21T03:48:34;49208.22;;;-144.14;100.00
7075;BME280;3578;51.568;6.932;2023-02-21T03:51:01;49198.22;;;-144.14;100.00
7075;BME280;3578;51.568;6.932;2023-02-21T03:53:28;49154.19;;;-144.14;100.00
7075;BME280;3578;51.568;6.932;2023-02-21T03:55:55;49128.16;;;-144.14;100.00
7075;BME280;3578;51.568;6.932;2023-02-21T03:58:24;49108.16;;;-144.14;100.00
7075;BME280;3578;51.568;6.932;2023-02-21T04:00:51;49090.13;;;-144.14;100.00
7075;BME280;3578;51.568;6.932;2023-02-21T04:03:18;49098.13;;;-144.14;100.00
7075;BME280;3578;51.568;6.932;2023-02-21T04:05:46;49088.13;;;-144.14;100.00
7075;BME280;3578;51.568;6.932;2023-02-21T04:08:13;49078.13;;;-144.14;100.00
7075;BME280;3578;51.568;6.932;2023-02-21T04:10:40;49074.13;;;-144.14;100.00
7075;BME280;3578;51.568;6.932;2023-02-21T04:13:07;49044.09;;;-144.14;100.00
7075;BME280;3578;51.568;6.932;2023-02-21T04:15:36;49012.06;;;-144.14;100.00
7075;BME280;3578;51.568;6.932;2023-02-21T04:18:03;49034.09;;;-144.14;100.00
7075;BME280;3578;51.568;6.932;2023-02-21T04:20:30;48976.03;;;-144.14;100.00
7075;BME280;3578;51.568;6.932;2023-02-21T04:22:57;48992.06;;;-144.14;100.00
7075;BME280;3578;51.568;6.932;2023-02-21T04:25:24;49014.06;;;-144.14;100.00
7075;BME280;3578;51.568;6.932;2023-02-21T04:27:51;48885.97;;;-144.14;100.00
7075;BME280;3578;51.568;6.932;2023-02-21T04:30:18;48859.94;;;-144.14;100.00
7075;BME280;3578;51.568;6.932;2023-02-21T04:32:47;48837.94;;;-144.14;100.00
7075;BME280;3578;51.568;6.932;2023-02-21T04:35:14;48815.91;;;-144.14;100.00
7075;BME280;3578;51.568;6.932;2023-02-21T04:37:41;48823.91;;;-144.14;100.00
7075;BME280;3578;51.568;6.932;2023-02-21T04:40:10;48787.91;;;-144.14;100.00
7075;BME280;3578;51.568;6.932;2023-02-21T04:42:37;48849.94;;;-144.14;100.00
7075;BME280;3578;51.568;6.932;2023-02-21T04:45:04;48881.97;;;-144.14;100.00
7075;BME280;3578;51.568;6.932;2023-02-21T04:47:31;48875.97;;;-144.14;100.00
7075;BME280;3578;51.568;6.932;2023-02-21T04:50:00;48922.00;;;-144.14;100.00
7075;BME280;3578;51.568;6.932;2023-02-21T04:52:27;48916.00;;;-144.14;100.00
7075;BME280;3578;51.568;6.932;2023-02-21T04:54:54;48912.00;;;-144.14;100.00
7075;BME280;3578;51.568;6.932;2023-02-21T04:57:21;48948.00;;;-144.14;100.00
7075;BME280;3578;51.568;6.932;2023-02-21T04:59:48;48916.00;;;-144.14;100.00
7075;BME280;3578;51.568;6.932;2023-02-21T05:02:21;48912.00;;;-144.14;100.00
7075;BME280;3578;51.568;6.932;2023-02-21T05:04:48;48891.97;;;-144.14;100.00
7075;BME280;3578;51.568;6.932;2023-02-21T05:07:16;48837.94;;;-144.14;100.00
7075;BME280;3578;51.568;6.932;2023-02-21T05:09:43;48825.94;;;-144.14;100.00
7075;BME280;3578;51.568;6.932;2023-02-21T05:12:10;48763.88;;;-144.14;100.00
7075;BME280;3578;51.568;6.932;2023-02-21T05:14:38;48785.91;;;-144.14;100.00
7075;BME280;3578;51.568;6.932;2023-02-21T05:17:05;48801.91;;;-144.14;100.00
7075;BME280;3578;51.568;6.932;2023-02-21T05:19:32;48807.91;;;-144.14;100.00
7075;BME280;3578;51.568;6.932;2023-02-21T05:22:01;48795.91;;;-144.14;100.00
7075;BME280;3578;51.568;6.932;2023-02-21T05:24:33;48801.91;;;-144.14;100.00
7075;BME280;3578;51.568;6.932;2023-02-21T05:27:00;48855.94;;;-144.14;100.00
7075;BME280;3578;51.568;6.932;2023-02-21T05:29:27;48817.91;;;-144.14;100.00
7075;BME280;3578;51.568;6.932;2023-02-21T05:31:54;48799.91;;;-144.14;100.00
7075;BME280;3578;51.568;6.932;2023-02-21T05:34:21;48835.94;;;-144.14;100.00
7075;BME280;3578;51.568;6.932;2023-02-21T05:36:48;48793.91;;;-144.14;100.00
7075;BME280;3578;51.568;6.932;2023-02-21T05:39:15;48823.91;;;-144.14;100.00
7075;BME280;3578;51.568;6.932;2023-02-21T05:41:47;48779.88;;;-144.14;100.00
7075;BME280;3578;51.568;6.932;2023-02-21T05:44:15;48739.88;;;-144.14;100.00
7075;BME280;3578;51.568;6.932;2023-02-21T05:46:42;48783.91;;;-144.14;100.00
7075;BME280;3578;51.568;6.932;2023-02-21T05:49:10;48761.88;;;-144.14;100.00
7075;BME280;3578;51.568;6.932;2023-02-21T05:51:41;48747.88;;;-144.14;100.00
7075;BME280;3578;51.568;6.932;2023-02-21T05:54:12;48737.84;;;-144.14;100.00
7075;BME280;3578;51.568;6.932;2023-02-21T05:56:41;48705.84;;;-144.14;100.00
7075;BME280;3578;51.568;6.932;2023-02-21T05:59:11;48691.81;;;-144.14;100.00
7075;BME280;3578;51.568;6.932;2023-02-21T06:01:38;48649.81;;;-144.14;100.00
7075;BME280;3578;51.568;6.932;2023-02-21T06:04:06;48607.78;;;-144.14;100.00
7075;BME280;3578;51.568;6.932;2023-02-21T06:06:33;48557.75;;;-144.14;100.00
7075;BME280;3578;51.568;6.932;2023-02-21T06:09:00;48577.75;;;-144.14;100.00
7075;BME280;3578;51.568;6.932;2023-02-21T06:11:30;48543.72;;;-144.14;100.00
7075;BME280;3578;51.568;6.932;2023-02-21T06:14:00;48515.72;;;-144.14;100.00
7075;BME280;3578;51.568;6.932;2023-02-21T06:16:32;48455.66;;;-144.14;100.00
7075;BME280;3578;51.568;6.932;2023-02-21T06:19:00;48441.66;;;-144.14;100.00
7075;BME280;3578;51.568;6.932;2023-02-21T06:21:27;48465.69;;;-144.14;100.00
7075;BME280;3578;51.568;6.932;2023-02-21T06:23:54;48481.69;;;-144.14;100.00
7075;BME280;3578;51.568;6.932;2023-02-21T06:26:21;48445.66;;;-144.14;100.00
7075;BME280;3578;51.568;6.932;2023-02-21T06:28:48;48429.66;;;-144.14;100.00
7075;BME280;3578;51.568;6.932;2023-02-21T06:31:16;48429.66;;;-144.14;100.00
7075;BME280;3578;51.568;6.932;2023-02-21T06:33:45;48371.63;;;-144.14;100.00
7075;BME280;3578;51.568;6.932;2023-02-21T06:36:16;48439.66;;;-144.14;100.00
7075;BME280;3578;51.568;6.932;2023-02-21T06:38:44;48463.69;;;-144.14;100.00
7075;BME280;3578;51.568;6.932;2023-02-21T06:41:14;48431.66;;;-144.14;100.00
7075;BME280;3578;51.568;6.932;2023-02-21T06:43:42;48499.69;;;-144.14;100.00
7075;BME280;3578;51.568;6.932;2023-02-21T06:46:09;48485.69;;;-144.14;100.00
7075;BME280;3578;51.568;6.932;2023-02-21T06:48:36;48531.72;;;-144.14;100.00
7075;BME280;3578;51.568;6.932;2023-02-21T06:51:07;48467.69;;;-144.14;100.00
7075;BME280;3578;51.568;6.932;2023-02-21T06:53:36;48485.69;;;-144.14;100.00
7075;BME280;3578;51.568;6.932;2023-02-21T06:56:03;48487.69;;;-144.14;100.00
7075;BME280;3578;51.568;6.932;2023-02-21T07:00:57;48383.63;;;-144.14;100.00
7075;BME280;3578;51.568;6.932;2023-02-21T07:03:25;48297.56;;;-144.14;100.00
7075;BME280;3578;51.568;6.932;2023-02-21T07:05:52;48335.59;;;-144.14;100.00
7075;BME280;3578;51.568;6.932;2023-02-21T07:08:30;48287.56;;;-144.14;100.00
7075;BME280;3578;51.568;6.932;2023-02-21T07:10:57;48283.56;;;-144.14;100.00
7075;BME280;3578;51.568;6.932;2023-02-21T07:13:24;48299.56;;;-144.14;100.00
7075;BME280;3578;51.568;6.932;2023-02-21T07:15:51;48201.53;;;-144.14;100.00
7075;BME280;3578;51.568;6.932;2023-02-21T07:18:18;48059.44;;;-144.14;100.00
7075;BME280;3578;51.568;6.932;2023-02-21T07:20:45;47975.41;;;-144.14;100.00
7075;BME280;3578;51.568;6.932;2023-02-21T07:23:12;47947.38;;;-144.14;100.00
7075;BME280;3578;51.568;6.932;2023-02-21T07:25:40;47947.38;;;-144.14;100.00
7075;BME280;3578;51.568;6.932;2023-02-21T07:28:07;48213.53;;;-144.14;100.00
7075;BME280;3578;51.568;6.932;2023-02-21T07:30:34;48417.66;;;-144.14;100.00
7075;BME280;3578;51.568;6.932;2023-02-21T07:33:01;48579.75;;;-144.14;100.00
7075;BME280;3578;51.568;6.932;2023-02-21T07:35:28;48731.84;;;-144.14;100.00
7075;BME280;3578;51.568;6.932;2023-02-21T07:37:55;48823.91;;;-144.14;100.00
7075;BME280;3578;51.568;6.932;2023-02-21T07:40:22;48990.06;;;-144.14;100.00
7075;BME280;3578;51.568;6.932;2023-02-21T07:42:51;49062.09;;;-144.14;100.00
7075;BME280;3578;51.568;6.932;2023-02-21T07:45:17;49108.16;;;-144.14;100.00
7075;BME280;3578;51.568;6.932;2023-02-21T07:47:45;49122.16;;;-144.14;100.00
7075;BME280;3578;51.568;6.932;2023-02-21T07:50:12;49132.16;;;-144.14;100.00
7075;BME280;3578;51.568;6.932;2023-02-21T07:52:40;49172.19;;;-144.14;100.00
7075;BME280;3578;51.568;6.932;2023-02-21T07:55:07;49152.19;;;-144.14;100.00
7075;BME280;3578;51.568;6.932;2023-02-21T07:57:36;49188.22;;;-144.14;100.00
7075;BME280;3578;51.568;6.932;2023-02-21T08:00:07;49104.13;;;-144.14;100.00
7075;BME280;3578;51.568;6.932;2023-02-21T08:02:34;49016.06;;;-144.14;100.00
7075;BME280;3578;51.568;6.932;2023-02-21T08:05:03;48962.03;;;-144.14;100.00
7075;BME280;3578;51.568;6.932;2023-02-21T08:07:31;48986.03;;;-144.14;100.00
7075;BME280;3578;51.568;6.932;2023-02-21T08:09:58;48962.03;;;-144.14;100.00
7075;BME280;3578;51.568;6.932;2023-02-21T08:12:25;48992.06;;;-144.14;100.00
7075;BME280;3578;51.568;6.932;2023-02-21T08:14:52;48996.06;;;-144.14;100.00
7075;BME280;3578;51.568;6.932;2023-02-21T08:17:20;48938.00;;;-144.14;100.00
7075;BME280;3578;51.568;6.932;2023-02-21T08:19:47;48964.03;;;-144.14;100.00
7075;BME280;3578;51.568;6.932;2023-02-21T08:22:14;48926.00;;;-144.14;100.00
7075;BME280;3578;51.568;6.932;2023-02-21T08:24:41;48841.94;;;-144.14;100.00
7075;BME280;3578;51.568;6.932;2023-02-21T08:27:09;48833.94;;;-144.14;100.00
7075;BME280;3578;51.568;6.932;2023-02-21T08:29:36;48831.94;;;-144.14;100.00
7075;BME280;3578;51.568;6.932;2023-02-21T08:32:05;48865.94;;;-144.14;100.00
7075;BME280;3578;51.568;6.932;2023-02-21T08:34:33;48847.94;;;-144.14;100.00
7075;BME280;3578;51.568;6.932;2023-02-21T08:37:00;48807.91;;;-144.14;100.00
7075;BME280;3578;51.568;6.932;2023-02-21T08:39:39;48797.91;;;-144.14;100.00
7075;BME280;3578;51.568;6.932;2023-02-21T08:42:06;48763.88;;;-144.14;100.00
7075;BME280;3578;51.568;6.932;2023-02-21T08:44:33;48749.88;;;-144.14;100.00
7075;BME280;3578;51.568;6.932;2023-02-21T08:46:59;48739.88;;;-144.14;100.00
7075;BME280;3578;51.568;6.932;2023-02-21T08:49:26;48771.88;;;-144.14;100.00
7075;BME280;3578;51.568;6.932;2023-02-21T08:51:55;48787.91;;;-144.14;100.00
7075;BME280;3578;51.568;6.932;2023-02-21T08:54:22;48799.91;;;-144.14;100.00
7075;BME280;3578;51.568;6.932;2023-02-21T08:56:49;48823.91;;;-144.14;100.00
7075;BME280;3578;51.568;6.932;2023-02-21T08:59:16;48799.91;;;-144.14;100.00
7075;BME280;3578;51.568;6.932;2023-02-21T09:01:43;48783.91;;;-144.14;100.00
7075;BME280;3578;51.568;6.932;2023-02-21T09:04:10;48775.88;;;-144.14;100.00
7075;BME280;3578;51.568;6.932;2023-02-21T09:06:37;48819.91;;;-144.14;100.00
7075;BME280;3578;51.568;6.932;2023-02-21T09:09:06;48823.91;;;-144.14;100.00
7075;BME280;3578;51.568;6.932;2023-02-21T09:11:33;48807.91;;;-144.14;100.00
7075;BME280;3578;51.568;6.932;2023-02-21T09:14:00;48859.94;;;-144.14;100.00
7075;BME280;3578;51.568;6.932;2023-02-21T09:16:30;48831.94;;;-144.14;100.00
7075;BME280;3578;51.568;6.932;2023-02-21T09:18:59;48907.97;;;-144.14;100.00
7075;BME280;3578;51.568;6.932;2023-02-21T09:21:27;48873.97;;;-144.14;100.00
7075;BME280;3578;51.568;6.932;2023-02-21T09:23:55;48885.97;;;-144.14;100.00
7075;BME280;3578;51.568;6.932;2023-02-21T09:26:25;48875.97;;;-144.14;100.00
7075;BME280;3578;51.568;6.932;2023-02-21T09:28:56;48871.97;;;-144.14;100.00
7075;BME280;3578;51.568;6.932;2023-02-21T09:31:23;48899.97;;;-144.14;100.00
7075;BME280;3578;51.568;6.932;2023-02-21T09:33:50;48905.97;;;-144.14;100.00
7075;BME280;3578;51.568;6.932;2023-02-21T09:36:17;48960.03;;;-144.14;100.00
7075;BME280;3578;51.568;6.932;2023-02-21T09:38:49;49006.06;;;-144.14;100.00
7075;BME280;3578;51.568;6.932;2023-02-21T09:41:16;49046.09;;;-144.14;100.00
7075;BME280;3578;51.568;6.932;2023-02-21T09:43:48;49024.06;;;-144.14;100.00
7075;BME280;3578;51.568;6.932;2023-02-21T09:46:30;48982.03;;;-144.14;100.00
7075;BME280;3578;51.568;6.932;2023-02-21T09:49:00;48996.06;;;-144.14;100.00
7075;BME280;3578;51.568;6.932;2023-02-21T09:51:30;49012.06;;;-144.14;100.00
7075;BME280;3578;51.568;6.932;2023-02-21T09:53:58;49020.06;;;-144.14;100.00
7075;BME280;3578;51.568;6.932;2023-02-21T09:56:28;49070.13;;;-144.14;100.00
7075;BME280;3578;51.568;6.932;2023-02-21T09:58:57;49112.16;;;-144.14;100.00
7075;BME280;3578;51.568;6.932;2023-02-21T10:01:36;49094.13;;;-144.14;100.00
7075;BME280;3578;51.568;6.932;2023-02-21T10:04:17;49056.09;;;-144.14;100.00
7075;BME280;3578;51.568;6.932;2023-02-21T10:06:51;49100.13;;;-144.14;100.00
7075;BME280;3578;51.568;6.932;2023-02-21T10:09:34;49102.13;;;-144.14;100.00
7075;BME280;3578;51.568;6.932;2023-02-21T10:12:12;49114.16;;;-144.14;100.00
7075;BME280;3578;51.568;6.932;2023-02-21T10:15:12;49052.09;;;-144.14;100.00
7075;BME280;3578;51.568;6.932;2023-02-21T10:17:46;49100.13;;;-144.14;100.00
7075;BME280;3578;51.568;6.932;2023-02-21T10:20:26;49076.13;;;-144.14;100.00
7075;BME280;3578;51.568;6.932;2023-02-21T10:22:54;49102.13;;;-144.14;100.00
7075;BME280;3578;51.568;6.932;2023-02-21T10:25:26;49166.19;;;-144.14;100.00
7075;BME280;3578;51.568;6.932;2023-02-21T10:27:57;49200.22;;;-144.14;100.00
7075;BME280;3578;51.568;6.932;2023-02-21T10:30:31;49230.25;;;-144.14;100.00
7075;BME280;3578;51.568;6.932;2023-02-21T10:33:00;49288.28;;;-144.14;100.00
7075;BME280;3578;51.568;6.932;2023-02-21T10:35:31;49314.31;;;-144.14;100.00
7075;BME280;3578;51.568;6.932;2023-02-21T10:37:59;49372.38;;;-144.14;100.00
7075;BME280;3578;51.568;6.932;2023-02-21T10:40:32;49346.34;;;-144.14;100.00
7075;BME280;3578;51.568;6.932;2023-02-21T10:43:08;49348.34;;;-144.14;100.00
7075;BME280;3578;51.568;6.932;2023-02-21T10:45:44;49372.38;;;-144.14;100.00
7075;BME280;3578;51.568;6.932;2023-02-21T10:48:12;49444.44;;;-144.14;100.00
7075;BME280;3578;51.568;6.932;2023-02-21T10:50:49;49412.41;;;-144.14;100.00
7075;BME280;3578;51.568;6.932;2023-02-21T10:53:27;49462.44;;;-144.14;100.00
7075;BME280;3578;51.568;6.932;2023-02-21T10:56:26;49416.41;;;-144.14;100.00
7075;BME280;3578;51.568;6.932;2023-02-21T10:58:56;49422.41;;;-144.14;100.00
7075;BME280;3578;51.568;6.932;2023-02-21T11:01:36;49450.44;;;-144.14;100.00
7075;BME280;3578;51.568;6.932;2023-02-21T11:04:24;49490.47;;;-144.14;100.00
7075;BME280;3578;51.568;6.932;2023-02-21T11:06:55;49524.50;;;-144.14;100.00
7075;BME280;3578;51.568;6.932;2023-02-21T11:09:35;49542.53;;;-144.14;100.00
7075;BME280;3578;51.568;6.932;2023-02-21T11:12:18;49530.50;;;-144.14;100.00
7075;BME280;3578;51.568;6.932;2023-02-21T11:18:10;49654.63;;;-144.14;100.00
7075;BME280;3578;51.568;6.932;2023-02-21T11:20:38;49662.66;;;-144.14;100.00
7075;BME280;3578;51.568;6.932;2023-02-21T11:23:22;49670.66;;;-144.14;100.00
7075;BME280;3578;51.568;6.932;2023-02-21T11:25:57;49676.66;;;-144.14;100.00
7075;BME280;3578;51.568;6.932;2023-02-21T11:28:25;49628.59;;;-144.14;100.00
7075;BME280;3578;51.568;6.932;2023-02-21T11:31:07;49660.63;;;-144.14;100.00
7075;BME280;3578;51.568;6.932;2023-02-21T11:33:42;49646.63;;;-144.14;100.00
7075;BME280;3578;51.568;6.932;2023-02-21T11:36:14;49604.59;;;-144.14;100.00
7075;BME280;3578;51.568;6.932;2023-02-21T11:38:44;49632.63;;;-144.14;100.00
7075;BME280;3578;51.568;6.932;2023-02-21T11:41:20;49656.63;;;-144.14;100.00
7075;BME280;3578;51.568;6.932;2023-02-21T11:43:49;49706.69;;;-144.14;100.00
7075;BME280;3578;51.568;6.932;2023-02-21T11:46:33;49700.69;;;-144.14;100.00
7075;BME280;3578;51.568;6.932;2023-02-21T11:49:07;49704.69;;;-144.14;100.00
7075;BME280;3578;51.568;6.932;2023-02-21T11:51:43;49728.72;;;-144.14;100.00
7075;BME280;3578;51.568;6.932;2023-02-21T11:54:12;49682.66;;;-144.14;100.00
7075;BME280;3578;51.568;6.932;2023-02-21T11:56:48;49720.69;;;-144.14;100.00
7075;BME280;3578;51.568;6.932;2023-02-21T11:59:33;49748.72;;;-144.14;100.00
7075;BME280;3578;51.568;6.932;2023-02-21T12:02:51;49772.75;;;-144.14;100.00
7075;BME280;3578;51.568;6.932;2023-02-21T12:08:38;49824.81;;;-144.14;100.00
7075;BME280;3578;51.568;6.932;2023-02-21T12:11:42;49836.81;;;-144.14;100.00
7075;BME280;3578;51.568;6.932;2023-02-21T12:17:28;49816.78;;;-144.14;100.00
7075;BME280;3578;51.568;6.932;2023-02-21T12:20:21;49856.84;;;-144.14;100.00
7075;BME280;3578;51.568;6.932;2023-02-21T12:23:05;49966.97;;;-144.14;100.00
7075;BME280;3578;51.568;6.932;2023-02-21T12:25:46;49964.94;;;-144.14;100.00
7075;BME280;3578;51.568;6.932;2023-02-21T12:28:28;49999.00;;;-144.14;100.00
7075;BME280;3578;51.568;6.932;2023-02-21T12:31:23;50031.03;;;-144.14;99.79
7075;BME280;3578;51.568;6.932;2023-02-21T12:34:19;50069.06;;;-144.14;99.39
7075;BME280;3578;51.568;6.932;2023-02-21T12:37:04;50117.13;;;-144.14;99.12
7075;BME280;3578;51.568;6.932;2023-02-21T12:39:54;50141.16;;;-144.14;98.77
7075;BME280;3578;51.568;6.932;2023-02-21T12:42:46;50197.22;;;-144.14;97.96
7075;BME280;3578;51.568;6.932;2023-02-21T12:45:32;50227.25;;;-144.14;97.92
7075;BME280;3578;51.568;6.932;2023-02-21T12:48:09;50213.22;;;-144.14;98.32
7075;BME280;3578;51.568;6.932;2023-02-21T12:50:40;50243.25;;;-144.14;98.20
7075;BME280;3578;51.568;6.932;2023-02-21T12:53:13;50307.34;;;-144.14;98.08
7075;BME280;3578;51.568;6.932;2023-02-21T12:55:47;50273.31;;;-144.14;98.33
7075;BME280;3578;51.568;6.932;2023-02-21T12:58:22;50289.31;;;-144.14;97.99
7075;BME280;3578;51.568;6.932;2023-02-21T13:00:56;50323.34;;;-144.14;98.28
7075;BME280;3578;51.568;6.932;2023-02-21T13:03:39;50309.34;;;-144.14;98.34
7075;BME280;3578;51.568;6.932;2023-02-21T13:06:17;50341.38;;;-144.14;98.26
7075;BME280;3578;51.568;6.932;2023-02-21T13:08:55;50329.38;;;-144.14;98.08
7075;BME280;3578;51.568;6.932;2023-02-21T13:11:31;50349.38;;;-144.14;97.88
7075;BME280;3578;51.568;6.932;2023-02-21T13:14:00;50333.38;;;-144.14;98.47
7075;BME280;3578;51.568;6.932;2023-02-21T13:16:27;50301.34;;;-144.14;98.75
7075;BME280;3578;51.568;6.932;2023-02-21T13:18:58;50311.34;;;-144.14;98.63
7075;BME280;3578;51.568;6.932;2023-02-21T13:21:43;50321.34;;;-144.14;98.88
7075;BME280;3578;51.568;6.932;2023-02-21T13:24:43;50315.34;;;-144.14;98.92
7075;BME280;3578;51.568;6.932;2023-02-21T13:30:24;50331.38;;;-144.14;98.84
7075;BME280;3578;51.568;6.932;2023-02-21T13:32:56;50287.31;;;-144.14;99.17
7075;BME280;3578;51.568;6.932;2023-02-21T13:35:31;50341.38;;;-144.14;98.82
7075;BME280;3578;51.568;6.932;2023-02-21T13:38:01;50399.44;;;-144.14;98.16
7075;BME280;3578;51.568;6.932;2023-02-21T13:40:35;50385.44;;;-144.14;98.14
7075;BME280;3578;51.568;6.932;2023-02-21T13:43:12;50413.47;;;-144.14;97.97
7075;BME280;3578;51.568;6.932;2023-02-21T13:45:40;50417.47;;;-144.14;97.81
7075;BME280;3578;51.568;6.932;2023-02-21T13:48:26;50441.50;;;-144.14;97.19
7075;BME280;3578;51.568;6.932;2023-02-21T13:50:55;50473.53;;;-144.14;97.19
7075;BME280;3578;51.568;6.932;2023-02-21T13:53:25;50477.53;;;-144.14;97.20